createdAt,value
2018-08-18T00:00:54.273Z,70.11
2018-08-18T00:03:25.089Z,69.98
2018-08-18T00:05:55.928Z,69.84
2018-08-18T00:08:26.699Z,70.15
2018-08-18T00:10:57.527Z,70.28
2018-08-18T00:13:28.255Z,70.76
2018-08-18T00:15:58.965Z,71.24
2018-08-18T00:18:29.706Z,71.12
2018-08-18T00:21:00.447Z,70.98
2018-08-18T00:23:31.098Z,71.10
2018-08-18T00:26:01.868Z,71.28
2018-08-18T00:28:32.572Z,71.45
2018-08-18T00:31:03.263Z,71.48
2018-08-18T00:33:33.885Z,71.24
2018-08-18T00:36:04.708Z,71.01
2018-08-18T00:38:35.352Z,70.43
2018-08-18T00:41:06.169Z,70.38
2018-08-18T00:43:36.822Z,70.73
2018-08-18T00:46:07.656Z,71.01
2018-08-18T00:48:38.379Z,70.99
2018-08-18T00:51:09.103Z,71.48
2018-08-18T00:53:39.937Z,71.24
2018-08-18T00:56:10.634Z,71.27
2018-08-18T00:58:52.240Z,71.33
2018-08-18T01:01:22.976Z,71.58
2018-08-18T01:03:55.151Z,71.58
2018-08-18T01:06:32.858Z,72.21
2018-08-18T01:09:05.335Z,72.07
2018-08-18T01:11:41.508Z,71.46
2018-08-18T01:14:21.577Z,71.54
2018-08-18T01:16:57.728Z,71.61
2018-08-18T01:19:33.789Z,71.12
2018-08-18T01:22:11.921Z,71.26
2018-08-18T01:24:48.429Z,71.55
2018-08-18T01:27:24.322Z,71.71
2018-08-18T01:30:04.155Z,71.53
2018-08-18T01:32:40.119Z,71.79
2018-08-18T01:35:16.253Z,72.15
2018-08-18T01:37:52.290Z,72.12
2018-08-18T01:40:28.353Z,71.84
2018-08-18T01:43:04.552Z,71.87
2018-08-18T01:45:40.732Z,72.00
2018-08-18T01:48:16.808Z,72.43
2018-08-18T01:50:53.134Z,72.20
2018-08-18T01:53:29.184Z,73.08
2018-08-18T01:56:05.232Z,72.29
2018-08-18T01:58:41.108Z,72.12
2018-08-18T02:01:17.185Z,72.26
2018-08-18T02:03:53.100Z,72.18
2018-08-18T02:06:29.172Z,72.41
2018-08-18T02:09:06.422Z,72.42
2018-08-18T02:11:43.053Z,72.01
2018-08-18T02:14:21.424Z,72.37
2018-08-18T02:17:14.121Z,72.55
2018-08-18T02:19:50.126Z,72.82
2018-08-18T02:22:26.747Z,72.61
2018-08-18T02:25:02.594Z,72.87
2018-08-18T02:27:39.116Z,72.96
2018-08-18T02:30:22.213Z,73.43
2018-08-18T02:32:58.233Z,73.30
2018-08-18T02:35:34.291Z,73.84
2018-08-18T02:38:10.311Z,73.99
2018-08-18T02:40:46.223Z,74.10
2018-08-18T02:43:25.117Z,73.71
2018-08-18T02:46:18.509Z,74.06
2018-08-18T02:48:54.574Z,73.93
2018-08-18T02:51:31.324Z,73.36
2018-08-18T02:54:07.417Z,73.40
2018-08-18T02:56:43.747Z,73.47
2018-08-18T02:59:19.778Z,73.87
2018-08-18T03:01:55.837Z,73.71
2018-08-18T03:04:35.809Z,73.71
2018-08-18T03:07:11.912Z,73.70
2018-08-18T03:09:48.029Z,73.95
2018-08-18T03:12:29.498Z,73.60
2018-08-18T03:15:05.409Z,73.79
2018-08-18T03:17:41.395Z,74.08
2018-08-18T03:20:17.463Z,74.37
2018-08-18T03:22:53.556Z,74.58
2018-08-18T03:25:44.714Z,74.57
2018-08-18T03:28:21.660Z,74.72
2018-08-18T03:30:57.703Z,74.73
2018-08-18T03:33:33.720Z,74.50
2018-08-18T03:36:25.662Z,75.43
2018-08-18T03:39:01.581Z,75.22
2018-08-18T03:41:37.711Z,75.05
2018-08-18T03:44:13.828Z,74.97
2018-08-18T03:46:49.928Z,75.29
2018-08-18T03:49:26.827Z,74.86
2018-08-18T03:52:03.234Z,74.72
2018-08-18T03:54:39.092Z,74.86
2018-08-18T03:57:15.152Z,74.58
2018-08-18T03:59:51.124Z,74.65
2018-08-18T04:02:27.928Z,74.77
2018-08-18T04:05:08.138Z,74.66
2018-08-18T04:07:47.082Z,75.18
2018-08-18T04:10:23.249Z,75.15
2018-08-18T04:13:01.013Z,74.86
2018-08-18T04:15:37.019Z,74.37
2018-08-18T04:18:16.422Z,74.85
2018-08-18T04:20:52.508Z,74.85
2018-08-18T04:23:28.392Z,75.60
2018-08-18T04:26:04.301Z,75.33
2018-08-18T04:28:40.237Z,75.54
2018-08-18T04:31:19.148Z,75.09
2018-08-18T04:33:55.060Z,75.40
2018-08-18T04:36:31.249Z,75.40
2018-08-18T04:39:14.749Z,74.91
2018-08-18T04:41:50.647Z,75.28
2018-08-18T04:44:57.536Z,74.86
2018-08-18T04:47:33.495Z,74.60
2018-08-18T04:50:09.432Z,74.73
2018-08-18T04:52:45.550Z,75.08
2018-08-18T04:55:22.041Z,74.97
2018-08-18T04:57:58.022Z,74.94
2018-08-18T05:00:34.039Z,74.89
2018-08-18T05:03:10.131Z,74.87
2018-08-18T05:05:46.221Z,74.72
2018-08-18T05:08:22.315Z,75.21
2018-08-18T05:10:58.327Z,74.81
2018-08-18T05:13:34.168Z,75.46
2018-08-18T05:16:10.196Z,75.02
2018-08-18T05:18:46.179Z,74.52
2018-08-18T05:21:23.276Z,74.01
2018-08-18T05:24:09.978Z,73.55
2018-08-18T05:26:45.851Z,72.87
2018-08-18T05:29:22.074Z,72.25
2018-08-18T05:31:58.093Z,71.82
2018-08-18T05:34:33.968Z,71.27
2018-08-18T05:37:09.857Z,71.14
2018-08-18T05:39:45.893Z,70.61
2018-08-18T05:42:22.049Z,70.39
2018-08-18T05:44:58.228Z,69.51
2018-08-18T05:47:34.075Z,69.17
2018-08-18T05:50:10.440Z,68.08
2018-08-18T05:52:46.395Z,68.96
2018-08-18T05:55:24.013Z,68.53
2018-08-18T05:58:00.054Z,68.33
2018-08-18T06:00:36.077Z,68.04
2018-08-18T06:03:15.628Z,68.55
2018-08-18T06:05:52.571Z,68.66
2018-08-18T06:08:28.667Z,67.91
2018-08-18T06:11:05.405Z,68.38
2018-08-18T06:13:41.502Z,67.79
2018-08-18T06:16:17.455Z,67.93
2018-08-18T06:18:53.773Z,66.36
2018-08-18T06:21:29.821Z,66.80
2018-08-18T06:24:05.883Z,66.78
2018-08-18T06:26:43.046Z,66.61
2018-08-18T06:29:18.913Z,66.58
2018-08-18T06:32:02.520Z,66.48
2018-08-18T06:34:39.642Z,66.05
2018-08-18T06:37:15.988Z,66.26
2018-08-18T06:39:57.681Z,66.02
2018-08-18T06:42:45.122Z,65.36
2018-08-18T06:45:21.469Z,65.20
2018-08-18T06:50:57.333Z,65.01
2018-08-18T06:53:38.683Z,64.59
2018-08-18T06:56:14.602Z,64.69
2018-08-18T06:58:51.432Z,63.16
2018-08-18T07:01:27.377Z,62.50
2018-08-18T07:04:03.550Z,61.91
2018-08-18T07:06:39.773Z,61.35
2018-08-18T07:09:15.898Z,60.30
2018-08-18T07:11:52.070Z,59.61
2018-08-18T07:14:28.053Z,59.21
2018-08-18T07:17:03.984Z,59.02
2018-08-18T07:19:39.889Z,58.46
2018-08-18T07:22:19.745Z,58.44
2018-08-18T07:24:55.561Z,57.01
2018-08-18T07:27:31.582Z,58.06
2018-08-18T07:30:08.452Z,57.03
2018-08-18T07:32:44.468Z,56.41
2018-08-18T07:35:20.463Z,55.82
2018-08-18T07:37:56.435Z,55.14
2018-08-18T07:40:41.538Z,54.72
2018-08-18T07:43:20.864Z,53.79
2018-08-18T07:45:58.200Z,53.36
2018-08-18T07:48:34.146Z,52.13
2018-08-18T07:51:10.181Z,51.02
2018-08-18T07:53:45.988Z,50.96
2018-08-18T07:56:21.923Z,51.78
2018-08-18T07:58:57.771Z,50.92
2018-08-18T08:01:33.687Z,51.06
2018-08-18T08:04:09.680Z,50.40
2018-08-18T08:06:45.800Z,49.88
2018-08-18T08:09:21.520Z,49.25
2018-08-18T08:11:57.428Z,47.61
2018-08-18T08:14:33.385Z,47.73
2018-08-18T08:17:09.765Z,45.38
2018-08-18T08:19:46.033Z,44.95
2018-08-18T08:22:21.973Z,43.67
2018-08-18T08:24:57.852Z,42.41
2018-08-18T08:27:33.776Z,40.74
2018-08-18T08:30:11.840Z,39.59
2018-08-18T08:32:48.122Z,40.48
2018-08-18T08:35:24.084Z,39.61
2018-08-18T08:38:00.155Z,38.86
2018-08-18T08:40:36.279Z,39.00
2018-08-18T08:43:28.852Z,39.47
2018-08-18T08:46:04.852Z,39.56
2018-08-18T08:48:40.679Z,41.05
2018-08-18T08:51:16.695Z,39.32
2018-08-18T08:53:55.228Z,37.04
2018-08-18T08:56:38.990Z,36.37
2018-08-18T08:59:14.905Z,37.22
2018-08-18T09:01:51.111Z,37.49
2018-08-18T09:04:26.960Z,36.16
2018-08-18T09:07:05.020Z,35.88
2018-08-18T09:09:41.065Z,36.65
2018-08-18T09:12:17.044Z,35.96
2018-08-18T09:14:53.824Z,37.98
2018-08-18T09:17:29.789Z,37.88
2018-08-18T09:20:08.035Z,37.46
2018-08-18T09:23:02.022Z,37.15
2018-08-18T09:25:38.022Z,37.12
2018-08-18T09:28:13.958Z,35.35
2018-08-18T09:30:49.834Z,34.06
2018-08-18T09:33:25.788Z,35.36
2018-08-18T09:36:05.064Z,34.51
2018-08-18T09:38:40.898Z,33.90
2018-08-18T09:41:17.020Z,32.99
2018-08-18T09:43:52.815Z,32.25
2018-08-18T09:46:28.851Z,32.59
2018-08-18T09:49:04.826Z,32.17
2018-08-18T09:51:40.647Z,31.53
2018-08-18T09:54:16.747Z,30.72
2018-08-18T09:56:52.643Z,31.66
2018-08-18T09:59:29.313Z,30.48
2018-08-18T10:02:05.868Z,31.49
2018-08-18T10:04:41.920Z,31.83
2018-08-18T10:07:17.986Z,32.10
2018-08-18T10:09:53.927Z,32.62
2018-08-18T10:12:29.876Z,31.87
2018-08-18T10:15:05.858Z,31.70
2018-08-18T10:17:41.904Z,32.01
2018-08-18T10:20:18.117Z,32.88
2018-08-18T10:22:54.208Z,33.61
2018-08-18T10:25:30.045Z,33.90
2018-08-18T10:28:06.336Z,34.24
2018-08-18T10:30:42.294Z,35.54
2018-08-18T10:33:18.254Z,35.60
2018-08-18T10:35:54.161Z,35.70
2018-08-18T10:38:30.208Z,35.84
2018-08-18T10:41:06.416Z,34.51
2018-08-18T10:43:42.381Z,33.27
2018-08-18T10:46:18.387Z,33.48
2018-08-18T10:48:54.267Z,33.28
2018-08-18T10:51:47.093Z,33.77
2018-08-18T10:54:22.879Z,31.88
2018-08-18T10:56:58.951Z,32.23
2018-08-18T10:59:50.753Z,31.67
2018-08-18T11:02:35.603Z,32.19
2018-08-18T11:05:11.553Z,32.64
2018-08-18T11:07:55.134Z,32.10
2018-08-18T11:10:32.877Z,30.68
2018-08-18T11:13:08.843Z,31.26
2018-08-18T11:15:45.793Z,31.73
2018-08-18T11:18:21.899Z,32.90
2018-08-18T11:20:57.922Z,31.91
2018-08-18T11:23:33.892Z,32.37
2018-08-18T11:26:09.849Z,31.60
2018-08-18T11:28:45.954Z,30.69
2018-08-18T11:31:21.620Z,29.46
2018-08-18T11:33:57.707Z,30.05
2018-08-18T11:36:33.596Z,29.37
2018-08-18T11:39:09.740Z,30.73
2018-08-18T11:41:45.785Z,32.40
2018-08-18T11:44:21.661Z,31.07
2018-08-18T11:46:57.699Z,31.20
2018-08-18T11:49:33.731Z,32.03
2018-08-18T11:52:09.548Z,32.48
2018-08-18T11:54:45.402Z,31.23
2018-08-18T11:57:21.199Z,31.16
2018-08-18T11:59:57.047Z,30.31
2018-08-18T12:02:33.061Z,30.86
2018-08-18T12:05:09.085Z,31.36
2018-08-18T12:07:44.990Z,30.50
2018-08-18T12:10:20.889Z,29.62
2018-08-18T12:12:56.836Z,29.15
2018-08-18T12:15:33.532Z,29.54
2018-08-18T12:18:09.570Z,28.37
2018-08-18T12:20:45.486Z,29.05
2018-08-18T12:23:21.487Z,28.04
2018-08-18T12:26:02.759Z,28.53
2018-08-18T12:28:42.917Z,28.30
2018-08-18T12:31:20.405Z,30.01
2018-08-18T12:33:56.399Z,27.48
2018-08-18T12:36:32.351Z,28.22
2018-08-18T12:39:08.515Z,27.90
2018-08-18T12:41:44.437Z,27.64
2018-08-18T12:44:24.464Z,28.45
2018-08-18T12:47:03.672Z,29.00
2018-08-18T12:49:39.641Z,29.64
2018-08-18T12:55:21.875Z,29.28
2018-08-18T12:57:57.898Z,27.58
2018-08-18T13:00:33.716Z,29.58
2018-08-18T13:03:09.694Z,28.28
2018-08-18T13:05:45.607Z,27.23
2018-08-18T13:08:21.741Z,29.09
2018-08-18T13:10:57.802Z,28.02
2018-08-18T13:13:33.806Z,27.53
2018-08-18T13:16:09.844Z,28.00
2018-08-18T13:18:45.747Z,29.17
2018-08-18T13:21:21.840Z,27.14
2018-08-18T13:23:59.799Z,27.74
2018-08-18T13:26:35.692Z,26.13
2018-08-18T13:29:11.548Z,26.38
2018-08-18T13:31:47.382Z,27.35
2018-08-18T13:34:23.145Z,25.90
2018-08-18T13:36:58.943Z,26.83
2018-08-18T13:39:34.957Z,27.66
2018-08-18T13:42:24.966Z,27.17
2018-08-18T13:45:00.820Z,26.74
2018-08-18T13:47:36.809Z,27.70
2018-08-18T13:50:15.519Z,27.04
2018-08-18T13:52:51.681Z,27.53
2018-08-18T13:55:47.931Z,26.78
2018-08-18T13:58:23.774Z,26.88
2018-08-18T14:00:59.791Z,26.20
2018-08-18T14:03:35.746Z,27.32
2018-08-18T14:06:11.623Z,28.15
2018-08-18T14:08:51.547Z,27.00
2018-08-18T14:11:27.375Z,27.74
2018-08-18T14:14:03.452Z,27.12
2018-08-18T14:16:39.355Z,27.16
2018-08-18T14:19:15.159Z,26.99
2018-08-18T14:21:55.619Z,27.25
2018-08-18T14:24:35.098Z,26.06
2018-08-18T14:27:15.408Z,25.37
2018-08-18T14:29:51.133Z,25.37
2018-08-18T14:32:27.855Z,25.23
2018-08-18T14:35:06.478Z,25.14
2018-08-18T14:37:43.131Z,26.31
2018-08-18T14:40:19.556Z,25.35
2018-08-18T14:42:55.369Z,25.88
2018-08-18T14:45:31.267Z,25.98
2018-08-18T14:48:07.196Z,25.09
2018-08-18T14:50:43.032Z,25.53
2018-08-18T14:53:25.812Z,25.85
2018-08-18T14:56:01.552Z,26.07
2018-08-18T14:58:37.811Z,27.15
2018-08-18T15:01:14.544Z,27.48
2018-08-18T15:03:50.640Z,25.79
2018-08-18T15:06:26.707Z,25.61
2018-08-18T15:09:02.585Z,24.51
2018-08-18T15:11:38.562Z,25.18
2018-08-18T15:14:14.419Z,26.00
2018-08-18T15:16:50.414Z,25.29
2018-08-18T15:19:26.448Z,25.14
2018-08-18T15:22:06.427Z,26.06
2018-08-18T15:24:42.219Z,25.91
2018-08-18T15:27:18.051Z,26.67
2018-08-18T15:29:54.098Z,25.62
2018-08-18T15:32:30.085Z,25.82
2018-08-18T15:35:06.117Z,26.04
2018-08-18T15:37:41.975Z,25.60
2018-08-18T15:40:18.093Z,26.07
2018-08-18T15:42:54.135Z,26.37
2018-08-18T15:45:30.646Z,26.57
2018-08-18T15:48:06.746Z,27.14
2018-08-18T15:50:42.719Z,27.32
2018-08-18T15:53:18.582Z,28.22
2018-08-18T15:55:54.528Z,28.32
2018-08-18T15:58:30.503Z,28.20
2018-08-18T16:01:06.815Z,29.00
2018-08-18T16:03:42.630Z,28.94
2018-08-18T16:06:18.716Z,29.62
2018-08-18T16:08:54.863Z,29.73
2018-08-18T16:11:30.929Z,29.94
2018-08-18T16:14:07.056Z,30.97
2018-08-18T16:17:01.024Z,31.13
2018-08-18T16:19:37.318Z,31.25
2018-08-18T16:22:13.127Z,31.14
2018-08-18T16:24:49.057Z,31.51
2018-08-18T16:27:24.884Z,32.07
2018-08-18T16:30:00.783Z,33.05
2018-08-18T16:32:36.820Z,32.63
2018-08-18T16:35:12.827Z,32.90
2018-08-18T16:37:48.766Z,32.75
2018-08-18T16:40:24.798Z,32.91
2018-08-18T16:43:02.341Z,32.86
2018-08-18T16:45:38.973Z,32.81
2018-08-18T16:48:15.230Z,32.35
2018-08-18T16:50:51.262Z,32.06
2018-08-18T16:53:27.105Z,32.92
2018-08-18T16:56:03.145Z,32.24
2018-08-18T16:58:41.427Z,32.04
2018-08-18T17:01:17.847Z,32.54
2018-08-18T17:03:53.919Z,32.57
2018-08-18T17:06:29.688Z,31.96
2018-08-18T17:09:06.140Z,32.05
2018-08-18T17:11:41.991Z,32.53
2018-08-18T17:14:20.727Z,32.56
2018-08-18T17:16:56.727Z,32.81
2018-08-18T17:19:32.571Z,32.62
2018-08-18T17:22:09.762Z,33.14
2018-08-18T17:24:45.824Z,32.20
2018-08-18T17:27:21.668Z,32.57
2018-08-18T17:29:57.699Z,32.13
2018-08-18T17:32:33.618Z,32.46
2018-08-18T17:35:09.619Z,32.32
2018-08-18T17:37:45.439Z,32.96
2018-08-18T17:40:21.423Z,33.13
2018-08-18T17:42:57.263Z,33.95
2018-08-18T17:45:40.581Z,34.40
2018-08-18T17:48:16.432Z,35.82
2018-08-18T17:50:52.977Z,37.08
2018-08-18T17:53:29.046Z,38.71
2018-08-18T17:56:05.280Z,40.12
2018-08-18T17:58:41.447Z,40.65
2018-08-18T18:01:17.223Z,41.52
2018-08-18T18:03:53.199Z,42.01
2018-08-18T18:06:29.301Z,42.99
2018-08-18T18:09:05.604Z,43.06
2018-08-18T18:11:41.438Z,43.96
2018-08-18T18:14:17.498Z,43.97
2018-08-18T18:16:53.638Z,44.28
2018-08-18T18:19:29.557Z,44.54
2018-08-18T18:22:05.675Z,45.00
2018-08-18T18:24:43.715Z,45.41
2018-08-18T18:27:19.804Z,45.18
2018-08-18T18:29:55.660Z,45.54
2018-08-18T18:32:31.485Z,45.91
2018-08-18T18:35:07.629Z,46.21
2018-08-18T18:37:43.573Z,45.95
2018-08-18T18:40:19.642Z,46.75
2018-08-18T18:42:55.420Z,46.53
2018-08-18T18:45:32.214Z,46.56
2018-08-18T18:48:11.318Z,47.00
2018-08-18T18:50:49.190Z,46.58
2018-08-18T18:53:26.681Z,46.82
2018-08-18T18:56:02.443Z,47.16
2018-08-18T18:58:38.380Z,47.58
2018-08-18T19:01:18.796Z,47.26
2018-08-18T19:03:54.772Z,47.94
2018-08-18T19:06:31.034Z,47.77
2018-08-18T19:09:07.246Z,48.23
2018-08-18T19:11:43.543Z,48.59
2018-08-18T19:14:23.797Z,48.72
2018-08-18T19:16:59.915Z,48.83
2018-08-18T19:19:35.972Z,49.11
2018-08-18T19:22:12.132Z,49.36
2018-08-18T19:24:48.428Z,49.90
2018-08-18T19:27:24.302Z,50.07
2018-08-18T19:30:00.296Z,50.14
2018-08-18T19:33:39.091Z,49.97
2018-08-18T19:36:15.070Z,51.71
2018-08-18T19:38:51.092Z,51.07
2018-08-18T19:41:26.988Z,51.45
2018-08-18T19:44:03.040Z,51.23
2018-08-18T19:46:38.877Z,51.70
2018-08-18T19:49:26.249Z,52.07
2018-08-18T19:52:06.083Z,52.46
2018-08-18T19:54:45.221Z,52.53
2018-08-18T19:57:27.728Z,52.79
2018-08-18T20:00:11.321Z,52.59
2018-08-18T20:03:10.707Z,53.33
2018-08-18T20:05:47.278Z,53.31
2018-08-18T20:08:24.392Z,53.59
2018-08-18T20:11:02.016Z,54.07
2018-08-18T20:13:37.852Z,54.06
2018-08-18T20:16:13.801Z,53.48
2018-08-18T20:18:49.717Z,53.79
2018-08-18T20:21:25.706Z,54.27
2018-08-18T20:24:01.763Z,54.26
2018-08-18T20:26:37.677Z,54.51
2018-08-18T20:29:13.628Z,54.19
2018-08-18T20:32:02.545Z,54.64
2018-08-18T20:34:38.503Z,55.22
2018-08-18T20:37:14.464Z,56.17
2018-08-18T20:39:50.547Z,57.20
2018-08-18T20:42:31.646Z,56.74
2018-08-18T20:45:08.047Z,57.57
2018-08-18T20:47:45.567Z,58.09
2018-08-18T20:50:21.681Z,58.28
2018-08-18T20:53:07.963Z,58.92
2018-08-18T20:55:46.331Z,58.32
2018-08-18T20:58:22.558Z,58.55
2018-08-18T21:00:58.704Z,58.53
2018-08-18T21:03:49.794Z,58.52
2018-08-18T21:06:25.843Z,58.35
2018-08-18T21:09:04.815Z,58.86
2018-08-18T21:11:41.456Z,58.95
2018-08-18T21:14:17.397Z,59.25
2018-08-18T21:16:54.839Z,59.87
2018-08-18T21:19:31.978Z,59.69
2018-08-18T21:25:17.540Z,59.80
2018-08-18T21:27:53.852Z,59.88
2018-08-18T21:30:29.786Z,60.16
2018-08-18T21:33:06.262Z,60.37
2018-08-18T21:35:42.459Z,60.67
2018-08-18T21:38:18.529Z,60.43
2018-08-18T21:40:55.854Z,60.36
2018-08-18T21:43:34.423Z,60.56
2018-08-18T21:46:10.376Z,60.87
2018-08-18T21:48:55.438Z,60.81
2018-08-18T21:51:31.550Z,60.31
2018-08-18T21:54:07.900Z,60.54
2018-08-18T21:56:44.048Z,61.01
2018-08-18T21:59:20.260Z,61.64
2018-08-18T22:01:58.585Z,61.45
2018-08-18T22:04:34.853Z,61.79
2018-08-18T22:07:10.953Z,61.49
2018-08-18T22:09:47.078Z,61.23
2018-08-18T22:12:23.261Z,61.44
2018-08-18T22:15:01.145Z,61.74
2018-08-18T22:17:37.043Z,62.61
2018-08-18T22:20:13.300Z,62.09
2018-08-18T22:22:49.462Z,62.85
2018-08-18T22:25:25.481Z,62.43
2018-08-18T22:28:01.807Z,62.68
2018-08-18T22:30:37.884Z,62.53
2018-08-18T22:33:14.146Z,62.59
2018-08-18T22:35:54.219Z,62.98
2018-08-18T22:38:32.889Z,62.96
2018-08-18T22:41:09.571Z,63.07
2018-08-18T22:43:47.221Z,63.48
2018-08-18T22:46:23.694Z,63.38
2018-08-18T22:49:00.001Z,63.68
2018-08-18T22:51:36.359Z,64.20
2018-08-18T22:54:13.298Z,64.73
2018-08-18T22:56:54.608Z,65.18
2018-08-18T22:59:31.220Z,64.85
2018-08-18T23:02:09.660Z,64.48
2018-08-18T23:04:46.205Z,64.73
2018-08-18T23:07:22.755Z,65.51
2018-08-18T23:10:00.526Z,65.33
2018-08-18T23:12:36.918Z,64.89
2018-08-18T23:15:15.409Z,65.32
2018-08-18T23:17:52.824Z,65.16
2018-08-18T23:20:30.341Z,65.17
2018-08-18T23:23:06.425Z,65.28
2018-08-18T23:25:42.986Z,65.27
2018-08-18T23:28:20.101Z,65.56
2018-08-18T23:30:57.938Z,65.99
2018-08-18T23:33:34.746Z,65.83
2018-08-18T23:36:11.577Z,66.31
2018-08-18T23:38:53.877Z,66.63
2018-08-18T23:41:30.256Z,66.65
2018-08-18T23:44:07.301Z,66.41
2018-08-18T23:46:46.432Z,66.93
2018-08-18T23:49:22.372Z,67.05
2018-08-18T23:52:00.388Z,66.94
2018-08-18T23:54:36.315Z,66.92
2018-08-18T23:57:13.793Z,66.95
2018-08-18T23:59:51.615Z,66.82
